Time;durP1;ratioP1;P1;durP2;ratioP2;P2;SDS_P1;SDS_P2;PMS_P1;PMS_P2;Temp;Humidity;BMP_temperature;BMP_pressure;BME280_temperature;BME280_humidity;BME280_pressure;Samples;Min_cycle;Max_cycle;Signal;HPM_P1;HPM_P2
2024/01/30 00:01:36;;;;;;;13.23;8.73;;;9.50;99.90;;;;;;5030004;28;20194;-71
2024/01/30 00:04:02;;;;;;;8.93;8.03;;;9.60;99.90;;;;;;5032600;28;20174;-73
2024/01/30 00:06:28;;;;;;;8.90;8.00;;;9.50;99.90;;;;;;5031313;28;20181;-71
2024/01/30 00:08:54;;;;;;;9.80;8.00;;;9.50;99.90;;;;;;5030012;28;21027;-66
2024/01/30 00:11:19;;;;;;;12.50;8.10;;;9.50;99.90;;;;;;5030346;28;20213;-75
2024/01/30 00:13:45;;;;;;;9.57;8.67;;;9.50;99.90;;;;;;5031345;28;20190;-67
2024/01/30 00:16:21;;;;;;;9.33;8.40;;;9.50;99.90;;;;;;5031406;28;20433;-73
2024/01/30 00:18:47;;;;;;;10.07;8.37;;;9.50;99.90;;;;;;5031236;28;20185;-70
2024/01/30 00:21:13;;;;;;;12.40;8.50;;;9.50;99.90;;;;;;5031599;28;20424;-74
2024/01/30 00:23:39;;;;;;;11.47;8.20;;;9.50;99.90;;;;;;5032313;28;20432;-67
2024/01/30 00:26:06;;;;;;;10.80;8.73;;;9.50;99.90;;;;;;5031308;28;20439;-67
2024/01/30 00:28:31;;;;;;;8.77;7.73;;;9.50;99.90;;;;;;5030984;28;20239;-71
2024/01/30 00:30:57;;;;;;;10.00;8.63;;;9.50;99.90;;;;;;5032052;28;20461;-72
2024/01/30 00:33:22;;;;;;;11.67;9.00;;;9.40;99.90;;;;;;5031541;28;20525;-71
2024/01/30 00:35:48;;;;;;;9.80;7.80;;;9.40;99.90;;;;;;5031214;28;20193;-71
2024/01/30 00:38:14;;;;;;;11.70;8.60;;;9.40;99.90;;;;;;5030934;28;20268;-69
2024/01/30 00:40:39;;;;;;;11.80;9.33;;;9.40;99.90;;;;;;5031089;28;20193;-67
2024/01/30 00:43:05;;;;;;;10.90;8.67;;;9.30;99.90;;;;;;5031172;28;20182;-71
2024/01/30 00:45:31;;;;;;;11.47;9.10;;;9.30;99.90;;;;;;5032191;28;20185;-65
2024/01/30 00:47:57;;;;;;;9.57;8.67;;;9.20;99.90;;;;;;5028615;28;20202;-68
2024/01/30 00:50:22;;;;;;;11.40;9.30;;;9.20;99.90;;;;;;5028239;28;20464;-68
2024/01/30 00:52:48;;;;;;;12.37;9.50;;;9.20;99.90;;;;;;5028139;28;20186;-71
2024/01/30 00:55:14;;;;;;;9.57;8.57;;;9.20;99.90;;;;;;5031313;28;20619;-67
2024/01/30 00:57:40;;;;;;;12.73;9.50;;;9.20;99.90;;;;;;5030703;28;20192;-71
2024/01/30 01:00:09;;;;;;;12.07;9.20;;;9.20;99.90;;;;;;5031939;28;20256;-70
2024/01/30 01:02:39;;;;;;;11.47;9.03;;;9.20;99.90;;;;;;5030473;28;20459;-68
2024/01/30 01:05:05;;;;;;;12.63;9.47;;;9.20;99.90;;;;;;5031585;28;20424;-66
2024/01/30 01:07:30;;;;;;;12.93;8.90;;;9.20;99.90;;;;;;5030525;28;20907;-67
2024/01/30 01:09:56;;;;;;;10.50;9.27;;;9.20;99.90;;;;;;5031207;28;20416;-70
2024/01/30 01:12:22;;;;;;;13.03;9.73;;;9.30;99.90;;;;;;5030881;28;20186;-70
2024/01/30 01:14:48;;;;;;;11.00;9.53;;;9.20;99.90;;;;;;5030377;28;20652;-67
2024/01/30 01:17:13;;;;;;;10.03;8.80;;;9.20;99.90;;;;;;5030242;28;20248;-65
2024/01/30 01:19:39;;;;;;;11.97;9.50;;;9.20;99.90;;;;;;5032152;28;20225;-68
2024/01/30 01:22:05;;;;;;;12.20;9.70;;;9.20;99.90;;;;;;5033075;28;20899;-67
2024/01/30 01:24:34;;;;;;;13.30;9.07;;;9.20;99.90;;;;;;5034204;28;20198;-66
2024/01/30 01:26:59;;;;;;;15.70;9.70;;;9.20;99.90;;;;;;5034604;28;20847;-70
2024/01/30 01:29:28;;;;;;;9.50;8.37;;;9.20;99.90;;;;;;5034585;28;20520;-68
2024/01/30 01:31:57;;;;;;;9.60;8.60;;;9.20;99.90;;;;;;5033283;28;20240;-71
2024/01/30 01:34:24;;;;;;;11.73;9.40;;;9.30;99.90;;;;;;5034565;28;20953;-71
2024/01/30 01:36:50;;;;;;;12.53;9.60;;;9.30;99.90;;;;;;5033595;28;20528;-68
2024/01/30 01:39:16;;;;;;;11.10;9.20;;;9.30;99.90;;;;;;5034316;28;20423;-67
2024/01/30 01:41:42;;;;;;;12.13;9.53;;;9.30;99.90;;;;;;5032898;28;20783;-68
2024/01/30 01:44:08;;;;;;;14.87;10.00;;;9.30;99.90;;;;;;5034244;28;20425;-67
2024/01/30 01:46:35;;;;;;;10.67;8.53;;;9.30;99.90;;;;;;5033459;28;20628;-69
2024/01/30 01:49:02;;;;;;;11.17;9.73;;;9.30;99.90;;;;;;5034106;28;20849;-67
2024/01/30 01:51:31;;;;;;;8.90;7.80;;;9.20;99.90;;;;;;5032732;28;20546;-63
2024/01/30 01:54:00;;;;;;;12.40;9.20;;;9.20;99.90;;;;;;5034366;28;20435;-70
2024/01/30 01:56:27;;;;;;;11.80;9.23;;;9.20;99.90;;;;;;5001390;28;20417;-69
2024/01/30 01:58:55;;;;;;;10.13;8.90;;;9.20;99.90;;;;;;5034093;28;20487;-71
2024/01/30 02:01:21;;;;;;;10.87;9.23;;;9.10;99.90;;;;;;5034664;28;20999;-64
2024/01/30 02:03:47;;;;;;;12.43;8.33;;;9.10;99.90;;;;;;5033837;28;20425;-70
2024/01/30 02:06:16;;;;;;;10.47;8.40;;;9.10;99.90;;;;;;5033005;28;21336;-71
2024/01/30 02:08:42;;;;;;;9.40;8.40;;;9.00;99.90;;;;;;5032931;28;20432;-68
2024/01/30 02:11:09;;;;;;;11.23;8.03;;;9.00;99.90;;;;;;5031553;28;20468;-69
2024/01/30 02:13:35;;;;;;;12.13;9.33;;;9.00;99.90;;;;;;5032369;28;20971;-70
2024/01/30 02:16:01;;;;;;;11.23;8.67;;;9.00;99.90;;;;;;5033737;28;20604;-72
2024/01/30 02:18:27;;;;;;;12.93;9.33;;;9.10;99.90;;;;;;5033985;28;20515;-71
2024/01/30 02:20:55;;;;;;;10.70;9.17;;;9.10;99.90;;;;;;5033754;28;20841;-69
2024/01/30 02:23:24;;;;;;;11.33;9.77;;;9.10;99.90;;;;;;5032421;28;20182;-69
2024/01/30 02:25:52;;;;;;;9.53;8.47;;;9.10;99.90;;;;;;5032655;28;20461;-70
2024/01/30 02:28:19;;;;;;;13.60;9.43;;;9.10;99.90;;;;;;5031571;28;21069;-71
2024/01/30 02:30:46;;;;;;;10.87;8.80;;;9.00;99.90;;;;;;5032583;28;20528;-63
2024/01/30 02:33:12;;;;;;;10.90;9.20;;;9.10;99.90;;;;;;5031604;28;20500;-69
2024/01/30 02:35:38;;;;;;;10.00;8.40;;;9.00;99.90;;;;;;5032518;28;20425;-67
2024/01/30 02:38:04;;;;;;;9.70;8.70;;;9.00;99.90;;;;;;5032244;28;20489;-69
2024/01/30 02:40:30;;;;;;;10.40;8.77;;;9.00;99.90;;;;;;5032931;28;20594;-70
2024/01/30 02:42:56;;;;;;;9.90;8.53;;;9.00;99.90;;;;;;5032861;28;20432;-68
2024/01/30 02:45:22;;;;;;;11.47;8.20;;;9.00;99.90;;;;;;5032721;28;20189;-70
2024/01/30 02:47:47;;;;;;;11.07;8.73;;;9.00;99.90;;;;;;5033274;28;20491;-67
2024/01/30 02:50:14;;;;;;;11.27;8.30;;;9.00;99.90;;;;;;5032526;28;20299;-73
2024/01/30 02:52:40;;;;;;;10.47;8.73;;;9.00;99.90;;;;;;5031712;28;20190;-71
2024/01/30 02:55:06;;;;;;;10.50;8.40;;;9.10;99.90;;;;;;5033730;28;20494;-68
2024/01/30 02:57:32;;;;;;;9.87;8.60;;;9.00;99.90;;;;;;5031910;28;20935;-68
2024/01/30 02:59:58;;;;;;;9.90;8.90;;;9.00;99.90;;;;;;5034294;28;20508;-69
2024/01/30 03:02:23;;;;;;;10.90;9.03;;;9.00;99.90;;;;;;5031012;28;20536;-70
2024/01/30 03:04:49;;;;;;;9.63;8.63;;;9.00;99.90;;;;;;5032745;28;20539;-67
2024/01/30 03:07:15;;;;;;;10.73;8.20;;;9.00;99.90;;;;;;5031067;28;20217;-71
2024/01/30 03:09:44;;;;;;;11.40;8.77;;;9.00;99.90;;;;;;5030862;28;20443;-71
2024/01/30 03:12:10;;;;;;;10.50;7.97;;;9.00;99.90;;;;;;5031570;28;20193;-67
2024/01/30 03:14:36;;;;;;;9.17;7.97;;;9.00;99.90;;;;;;5031626;28;20429;-68
2024/01/30 03:17:02;;;;;;;9.53;8.30;;;9.00;99.90;;;;;;5030465;28;20440;-70
2024/01/30 03:19:28;;;;;;;9.77;8.77;;;9.00;99.90;;;;;;5032194;28;20511;-66
2024/01/30 03:21:53;;;;;;;9.70;8.07;;;9.10;99.90;;;;;;5032732;28;20430;-66
2024/01/30 03:24:19;;;;;;;10.57;8.67;;;9.10;99.90;;;;;;5031770;28;20661;-66
2024/01/30 03:26:45;;;;;;;9.90;7.57;;;9.10;99.90;;;;;;5030762;28;20194;-69
2024/01/30 03:29:11;;;;;;;10.70;8.07;;;9.10;99.90;;;;;;5031932;28;20185;-69
2024/01/30 03:31:36;;;;;;;10.17;8.33;;;9.10;99.90;;;;;;5031175;28;20214;-71
2024/01/30 03:34:02;;;;;;;10.47;9.20;;;9.10;99.90;;;;;;5032332;28;20186;-68
2024/01/30 03:36:28;;;;;;;10.40;8.57;;;9.10;99.90;;;;;;5030367;28;20279;-65
2024/01/30 03:38:54;;;;;;;9.40;8.00;;;9.10;99.90;;;;;;5032839;28;20276;-69
2024/01/30 03:41:20;;;;;;;10.70;8.43;;;9.10;99.90;;;;;;5029824;28;20182;-69
2024/01/30 03:43:47;;;;;;;12.37;7.90;;;9.00;99.90;;;;;;5031234;28;20684;-69
2024/01/30 03:46:13;;;;;;;9.50;7.50;;;9.00;99.90;;;;;;5030822;28;20174;-70
2024/01/30 03:48:39;;;;;;;12.77;8.40;;;9.00;99.90;;;;;;5032234;28;20505;-68
2024/01/30 03:51:05;;;;;;;15.30;9.40;;;9.00;99.90;;;;;;5032616;28;20220;-66
2024/01/30 03:53:31;;;;;;;9.10;7.77;;;9.00;99.90;;;;;;5033413;28;20886;-68
2024/01/30 03:55:56;;;;;;;10.93;8.70;;;9.10;99.90;;;;;;5033454;28;20450;-68
2024/01/30 03:58:22;;;;;;;9.80;8.07;;;9.10;99.90;;;;;;5032773;28;20324;-66
2024/01/30 04:00:48;;;;;;;11.47;8.10;;;9.10;99.90;;;;;;5033889;28;20272;-67
2024/01/30 04:03:18;;;;;;;10.03;7.93;;;9.10;99.90;;;;;;5033620;28;20201;-67
2024/01/30 04:05:43;;;;;;;10.43;8.43;;;9.00;99.90;;;;;;5032635;28;21209;-65
2024/01/30 04:08:10;;;;;;;11.47;7.97;;;9.00;99.90;;;;;;5033741;28;20432;-67
2024/01/30 04:10:35;;;;;;;10.33;7.47;;;9.00;99.90;;;;;;5032138;28;20251;-67
2024/01/30 04:13:01;;;;;;;10.00;7.97;;;9.10;99.90;;;;;;5033708;28;20467;-68
2024/01/30 04:15:29;;;;;;;10.10;7.53;;;9.10;99.90;;;;;;5032827;28;20182;-71
2024/01/30 04:17:58;;;;;;;9.60;7.80;;;9.00;99.90;;;;;;5033111;28;20181;-67
2024/01/30 04:20:24;;;;;;;8.87;7.63;;;9.10;99.90;;;;;;5032264;28;20430;-66
2024/01/30 04:22:50;;;;;;;8.33;7.10;;;9.00;99.90;;;;;;5032630;28;20981;-67
2024/01/30 04:25:16;;;;;;;11.83;7.10;;;9.10;99.90;;;;;;5032507;28;20192;-66
2024/01/30 04:27:41;;;;;;;9.90;7.60;;;9.10;99.90;;;;;;5033138;28;20436;-70
2024/01/30 04:30:07;;;;;;;9.80;7.77;;;9.10;99.90;;;;;;5033510;28;20917;-67
2024/01/30 04:32:33;;;;;;;8.27;7.43;;;9.00;99.90;;;;;;5032189;28;20233;-68
2024/01/30 04:34:59;;;;;;;11.10;8.00;;;9.00;99.90;;;;;;5033521;28;21320;-70
2024/01/30 04:37:25;;;;;;;12.97;8.60;;;9.00;99.90;;;;;;5032036;28;20212;-72
2024/01/30 04:39:51;;;;;;;7.70;6.87;;;9.00;99.90;;;;;;5032609;28;20190;-67
2024/01/30 04:42:17;;;;;;;9.00;7.60;;;9.00;99.90;;;;;;5032410;28;20213;-68
2024/01/30 04:44:43;;;;;;;11.07;7.60;;;9.00;99.90;;;;;;5032929;28;20417;-67
2024/01/30 04:47:11;;;;;;;7.90;7.10;;;9.00;99.90;;;;;;5032801;28;20440;-66
2024/01/30 04:49:39;;;;;;;9.43;8.00;;;9.00;99.90;;;;;;5031866;28;20439;-66
2024/01/30 04:52:05;;;;;;;9.80;7.50;;;9.00;99.90;;;;;;5032395;28;20476;-72
2024/01/30 04:54:30;;;;;;;8.93;7.37;;;8.90;99.90;;;;;;5032278;28;20517;-70
2024/01/30 04:56:56;;;;;;;8.73;7.40;;;9.00;99.90;;;;;;5036727;28;20428;-66
2024/01/30 04:59:21;;;;;;;9.87;7.47;;;9.00;99.90;;;;;;5036476;28;20229;-69
2024/01/30 05:01:47;;;;;;;8.10;7.30;;;9.10;99.90;;;;;;5035322;28;20292;-65
2024/01/30 05:04:13;;;;;;;10.67;7.40;;;9.00;99.90;;;;;;5036625;28;20183;-67
2024/01/30 05:06:38;;;;;;;8.90;7.47;;;9.00;99.90;;;;;;5036514;28;20336;-71
2024/01/30 05:09:04;;;;;;;8.93;7.40;;;9.00;99.90;;;;;;5036656;28;20214;-71
2024/01/30 05:11:30;;;;;;;8.67;7.50;;;9.00;99.90;;;;;;5036110;28;20210;-65
2024/01/30 05:13:56;;;;;;;10.00;7.67;;;9.00;99.90;;;;;;5020393;28;20185;-68
2024/01/30 05:16:22;;;;;;;9.73;6.97;;;9.00;99.90;;;;;;5035200;28;20762;-68
2024/01/30 05:18:48;;;;;;;9.20;7.27;;;9.00;99.90;;;;;;5036680;28;20323;-71
2024/01/30 05:21:13;;;;;;;7.53;6.83;;;9.10;99.90;;;;;;5034757;28;20260;-70
2024/01/30 05:23:40;;;;;;;9.20;7.50;;;9.00;99.90;;;;;;5036324;28;20186;-68
2024/01/30 05:26:05;;;;;;;8.83;6.73;;;9.10;99.90;;;;;;5033910;28;20184;-72
2024/01/30 05:28:32;;;;;;;7.70;6.90;;;9.10;99.90;;;;;;5033186;28;21052;-66
2024/01/30 05:30:57;;;;;;;10.93;7.63;;;9.10;99.90;;;;;;5035458;28;20217;-73
2024/01/30 05:33:23;;;;;;;8.57;6.60;;;9.20;99.90;;;;;;5034535;28;20639;-74
2024/01/30 05:35:49;;;;;;;8.13;6.50;;;9.20;99.90;;;;;;5036308;28;20931;-66
2024/01/30 05:38:16;;;;;;;7.20;6.47;;;9.30;99.90;;;;;;5036234;28;20193;-68
2024/01/30 05:40:41;;;;;;;8.57;7.10;;;9.30;99.90;;;;;;5035525;28;20200;-70
2024/01/30 05:43:07;;;;;;;7.87;6.67;;;9.30;99.90;;;;;;5036902;28;20420;-70
2024/01/30 05:45:35;;;;;;;7.83;7.03;;;9.30;99.90;;;;;;5035288;28;20173;-68
2024/01/30 05:48:01;;;;;;;9.17;6.27;;;9.40;99.90;;;;;;5035327;28;20441;-71
2024/01/30 05:50:26;;;;;;;7.83;6.60;;;9.40;99.90;;;;;;5035631;28;20585;-71
2024/01/30 05:52:53;;;;;;;7.93;7.13;;;9.40;99.90;;;;;;5031791;28;20645;-71
2024/01/30 05:55:18;;;;;;;7.73;6.80;;;9.50;99.90;;;;;;5033858;28;20186;-70
2024/01/30 05:57:44;;;;;;;9.80;7.20;;;9.50;99.90;;;;;;5033160;28;20429;-72
2024/01/30 06:00:10;;;;;;;7.53;6.30;;;9.50;99.90;;;;;;5032902;28;20691;-68
2024/01/30 06:02:36;;;;;;;8.63;7.13;;;9.50;99.90;;;;;;5031823;28;20746;-69
2024/01/30 06:05:02;;;;;;;9.60;7.13;;;9.50;99.90;;;;;;5030738;28;20441;-67
2024/01/30 06:07:27;;;;;;;10.50;6.57;;;9.50;99.90;;;;;;5031618;28;20288;-71
2024/01/30 06:09:53;;;;;;;9.27;7.10;;;9.50;99.90;;;;;;5034229;28;20209;-71
2024/01/30 06:12:19;;;;;;;8.43;7.33;;;9.60;99.90;;;;;;5034764;28;20765;-69
2024/01/30 06:14:45;;;;;;;7.57;6.47;;;9.50;99.90;;;;;;5035537;28;20201;-68
2024/01/30 06:17:11;;;;;;;7.93;6.20;;;9.50;99.90;;;;;;5035029;28;20429;-71
2024/01/30 06:19:40;;;;;;;6.90;6.20;;;9.50;99.90;;;;;;5034547;28;20724;-64
2024/01/30 06:22:06;;;;;;;7.50;6.10;;;9.50;99.90;;;;;;5034688;28;20440;-71
2024/01/30 06:24:31;;;;;;;9.23;6.27;;;9.50;99.90;;;;;;5034684;28;20428;-67
2024/01/30 06:26:57;;;;;;;10.33;7.20;;;9.50;99.90;;;;;;5034988;28;20197;-71
2024/01/30 06:29:24;;;;;;;7.60;6.30;;;9.60;99.90;;;;;;5034892;28;20185;-73
2024/01/30 06:31:50;;;;;;;7.30;6.60;;;9.50;99.90;;;;;;5034774;28;20213;-69
2024/01/30 06:34:16;;;;;;;7.40;6.70;;;9.50;99.90;;;;;;5033236;28;20424;-68
2024/01/30 06:36:42;;;;;;;7.60;6.77;;;9.50;99.90;;;;;;5035032;28;20420;-71
2024/01/30 06:39:07;;;;;;;8.40;6.50;;;9.50;99.90;;;;;;5047484;28;20609;-66
2024/01/30 06:41:33;;;;;;;7.03;6.33;;;9.50;99.90;;;;;;5034463;28;20182;-70
2024/01/30 06:43:59;;;;;;;9.47;6.90;;;9.50;99.90;;;;;;5035287;28;20182;-72
2024/01/30 06:46:25;;;;;;;7.00;6.23;;;9.50;99.90;;;;;;5031396;28;20194;-69
2024/01/30 06:48:50;;;;;;;8.13;6.20;;;9.60;99.90;;;;;;5034039;28;20706;-67
2024/01/30 06:51:16;;;;;;;9.80;6.63;;;9.60;99.90;;;;;;5033030;28;20221;-71
2024/01/30 06:53:42;;;;;;;9.50;6.87;;;9.60;99.90;;;;;;5032452;28;20252;-67
2024/01/30 06:56:08;;;;;;;7.70;6.80;;;9.60;99.90;;;;;;5034308;28;20174;-66
2024/01/30 06:58:33;;;;;;;7.30;6.60;;;9.50;99.90;;;;;;5034113;28;20189;-70
2024/01/30 07:00:59;;;;;;;9.40;7.27;;;9.50;99.90;;;;;;5032906;28;20471;-72
2024/01/30 07:03:25;;;;;;;7.87;6.60;;;9.50;99.90;;;;;;5030114;28;20190;-74
2024/01/30 07:05:51;;;;;;;10.10;7.20;;;9.50;99.90;;;;;;5030340;28;20198;-68
2024/01/30 07:08:17;;;;;;;8.87;7.30;;;9.40;99.90;;;;;;5032391;28;20622;-67
2024/01/30 07:10:47;;;;;;;8.70;7.80;;;9.40;99.90;;;;;;5032735;28;20482;-70
2024/01/30 07:13:12;;;;;;;7.90;6.90;;;9.40;99.90;;;;;;5026563;28;20448;-72
2024/01/30 07:15:38;;;;;;;7.63;6.53;;;9.40;99.90;;;;;;5033329;28;20435;-71
2024/01/30 07:18:06;;;;;;;9.50;8.40;;;9.40;99.90;;;;;;5032578;28;20290;-69
2024/01/30 07:20:32;;;;;;;8.93;7.07;;;9.40;99.90;;;;;;5033047;28;20288;-69
2024/01/30 07:22:58;;;;;;;7.60;6.30;;;9.40;99.90;;;;;;5032780;28;20895;-72
2024/01/30 07:25:27;;;;;;;8.50;7.07;;;9.40;99.90;;;;;;5032274;28;20186;-68
2024/01/30 07:27:53;;;;;;;8.73;6.30;;;9.40;99.90;;;;;;5032183;28;20440;-73
2024/01/30 07:30:20;;;;;;;7.50;6.80;;;9.40;99.90;;;;;;5033179;28;20562;-74
2024/01/30 07:32:46;;;;;;;8.67;7.20;;;9.40;99.90;;;;;;5033751;28;20443;-72
2024/01/30 07:35:13;;;;;;;8.33;7.07;;;9.40;99.90;;;;;;5031867;28;20425;-70
2024/01/30 07:37:39;;;;;;;8.17;6.27;;;9.50;99.90;;;;;;5033016;28;20478;-67
2024/01/30 07:40:06;;;;;;;7.60;6.80;;;9.50;99.90;;;;;;5032987;28;20982;-71
2024/01/30 07:42:33;;;;;;;8.60;6.80;;;9.50;99.90;;;;;;5032722;28;20845;-70
2024/01/30 07:44:59;;;;;;;9.60;7.17;;;9.50;99.90;;;;;;5033750;28;20431;-69
2024/01/30 07:47:24;;;;;;;7.70;6.33;;;9.50;99.90;;;;;;5032410;28;20433;-71
2024/01/30 07:49:51;;;;;;;8.80;7.27;;;9.50;99.90;;;;;;5033912;28;20435;-67
2024/01/30 07:52:16;;;;;;;7.70;7.00;;;9.50;99.90;;;;;;5031140;28;20222;-66
2024/01/30 07:54:42;;;;;;;7.53;6.83;;;9.50;99.90;;;;;;5032694;28;20428;-70
2024/01/30 07:57:08;;;;;;;11.37;7.10;;;9.50;99.90;;;;;;5031668;28;20187;-71
2024/01/30 07:59:33;;;;;;;8.60;7.30;;;9.50;99.90;;;;;;5029457;28;20209;-67
2024/01/30 08:01:59;;;;;;;6.93;6.17;;;9.60;99.90;;;;;;5033404;28;20199;-68
2024/01/30 08:04:25;;;;;;;10.93;6.40;;;9.60;99.90;;;;;;5033263;28;20182;-69
2024/01/30 08:06:50;;;;;;;8.43;7.07;;;9.70;99.90;;;;;;5032937;28;20194;-69
2024/01/30 08:09:16;;;;;;;6.70;6.10;;;9.70;99.90;;;;;;5032660;28;20296;-70
2024/01/30 08:11:42;;;;;;;8.50;7.60;;;9.80;99.90;;;;;;5031957;28;20309;-67
2024/01/30 08:14:07;;;;;;;8.43;7.63;;;9.80;99.90;;;;;;5032163;28;20674;-68
2024/01/30 08:16:33;;;;;;;7.93;6.33;;;9.90;99.90;;;;;;5032755;28;20193;-73
2024/01/30 08:18:59;;;;;;;7.10;6.37;;;9.90;99.90;;;;;;5032738;28;20257;-68
2024/01/30 08:21:25;;;;;;;8.73;6.67;;;9.90;99.90;;;;;;5032769;28;20188;-70
2024/01/30 08:23:50;;;;;;;7.53;6.60;;;10.00;99.90;;;;;;5032764;28;20457;-69
2024/01/30 08:26:16;;;;;;;8.00;7.20;;;10.00;99.90;;;;;;5032102;28;20178;-68
2024/01/30 08:28:41;;;;;;;9.07;6.70;;;10.00;99.90;;;;;;5032623;28;20221;-71
2024/01/30 08:31:09;;;;;;;7.70;6.90;;;10.10;99.90;;;;;;5035898;28;20271;-67
2024/01/30 08:33:35;;;;;;;8.37;6.50;;;10.10;99.90;;;;;;5037935;28;20217;-69
2024/01/30 08:36:01;;;;;;;9.30;6.97;;;10.10;99.90;;;;;;5036660;28;20840;-70
2024/01/30 08:38:26;;;;;;;7.40;6.60;;;10.10;99.90;;;;;;5037318;28;20589;-67
2024/01/30 08:40:52;;;;;;;6.97;6.20;;;10.10;99.90;;;;;;5037147;28;20311;-66
2024/01/30 08:43:18;;;;;;;8.10;6.13;;;10.10;99.90;;;;;;5036041;28;20194;-70
2024/01/30 08:45:43;;;;;;;7.10;6.27;;;10.20;99.90;;;;;;5036544;28;20194;-69
2024/01/30 08:48:09;;;;;;;9.80;6.13;;;10.20;99.90;;;;;;5035228;28;20208;-70
2024/01/30 08:50:35;;;;;;;10.10;6.10;;;10.30;99.90;;;;;;5037503;28;20217;-70
2024/01/30 08:53:00;;;;;;;7.50;6.77;;;10.20;99.90;;;;;;5036738;28;20183;-69
2024/01/30 08:55:26;;;;;;;8.90;6.17;;;10.30;99.90;;;;;;5036061;28;20181;-69
2024/01/30 08:57:53;;;;;;;8.23;6.60;;;10.30;99.90;;;;;;5035843;28;20194;-68
2024/01/30 09:00:18;;;;;;;6.70;6.00;;;10.40;99.90;;;;;;5067347;28;20576;-69
2024/01/30 09:02:44;;;;;;;5.73;5.10;;;10.50;99.90;;;;;;5036981;28;20432;-71
2024/01/30 09:05:10;;;;;;;7.23;5.83;;;10.50;99.90;;;;;;5036388;28;20182;-68
2024/01/30 09:07:36;;;;;;;7.50;5.90;;;10.50;99.90;;;;;;5036348;28;20207;-72
2024/01/30 09:10:02;;;;;;;7.20;6.00;;;10.50;99.90;;;;;;5035782;28;20187;-74
2024/01/30 09:12:27;;;;;;;6.60;5.47;;;10.60;99.90;;;;;;5037184;28;20188;-69
2024/01/30 09:14:53;;;;;;;7.50;5.57;;;10.60;99.90;;;;;;5035999;28;20437;-69
2024/01/30 09:17:19;;;;;;;5.37;4.87;;;10.60;99.90;;;;;;5036406;28;20198;-69
2024/01/30 09:19:46;;;;;;;6.33;5.50;;;10.60;99.90;;;;;;5036296;28;20276;-67
2024/01/30 09:22:12;;;;;;;6.90;5.40;;;10.70;99.90;;;;;;5035922;28;20197;-71
2024/01/30 09:24:37;;;;;;;6.53;5.53;;;10.70;99.90;;;;;;5037433;28;20421;-68
2024/01/30 09:27:03;;;;;;;7.00;5.40;;;10.70;99.90;;;;;;5034685;28;20277;-68
2024/01/30 09:29:29;;;;;;;6.97;4.90;;;10.70;99.90;;;;;;5037048;28;20187;-65
2024/01/30 09:31:55;;;;;;;6.87;4.90;;;10.80;99.90;;;;;;5036199;28;20264;-71
2024/01/30 09:34:20;;;;;;;5.70;5.20;;;10.80;99.90;;;;;;5036541;28;20196;-67
2024/01/30 09:36:46;;;;;;;6.80;5.60;;;10.80;99.90;;;;;;5036597;28;20220;-70
2024/01/30 09:39:12;;;;;;;6.03;5.43;;;10.90;99.90;;;;;;5035703;28;20213;-70
2024/01/30 09:41:48;;;;;;;6.40;5.80;;;10.90;99.90;;;;;;5036529;28;20273;-70
2024/01/30 09:44:17;;;;;;;6.20;5.60;;;10.90;99.90;;;;;;5034813;28;20844;-68
2024/01/30 09:46:43;;;;;;;6.20;5.60;;;11.00;99.90;;;;;;5035761;28;20448;-72
2024/01/30 09:49:09;;;;;;;7.50;5.60;;;11.00;99.90;;;;;;5032097;28;20432;-71
2024/01/30 09:51:36;;;;;;;9.60;6.60;;;11.00;99.90;;;;;;5029342;28;20476;-72
2024/01/30 09:54:02;;;;;;;6.60;5.90;;;11.00;99.90;;;;;;5032647;28;20537;-65
2024/01/30 09:56:29;;;;;;;5.67;4.70;;;11.10;99.90;;;;;;5036076;28;20429;-70
2024/01/30 09:58:54;;;;;;;8.83;5.57;;;11.10;99.90;;;;;;5034940;28;21274;-68
2024/01/30 10:01:20;;;;;;;7.37;5.70;;;11.20;99.90;;;;;;5035947;28;20433;-67
2024/01/30 10:03:46;;;;;;;6.63;5.20;;;11.20;99.90;;;;;;5036199;28;20247;-71
2024/01/30 10:06:12;;;;;;;8.87;5.40;;;11.30;99.90;;;;;;5034981;28;20939;-67
2024/01/30 10:08:37;;;;;;;6.80;5.27;;;11.40;99.90;;;;;;5036474;28;20198;-72
2024/01/30 10:11:03;;;;;;;5.83;4.90;;;11.40;99.90;;;;;;5035074;28;20656;-71
2024/01/30 10:13:29;;;;;;;6.10;5.03;;;11.40;99.90;;;;;;5035756;28;20805;-73
2024/01/30 10:15:55;;;;;;;5.70;5.07;;;11.50;99.90;;;;;;5034865;28;20425;-71
2024/01/30 10:18:23;;;;;;;6.50;4.97;;;11.50;99.90;;;;;;5035699;28;20824;-70
2024/01/30 10:20:49;;;;;;;10.93;6.07;;;11.60;99.90;;;;;;5034421;28;20497;-69
2024/01/30 10:23:15;;;;;;;6.33;4.97;;;11.70;99.90;;;;;;5035212;28;20434;-70
2024/01/30 10:25:41;;;;;;;6.77;5.17;;;12.10;99.90;;;;;;5035588;28;20190;-71
2024/01/30 10:28:07;;;;;;;5.83;5.10;;;12.50;99.90;;;;;;5034802;28;20178;-72
2024/01/30 10:30:33;;;;;;;7.80;5.53;;;13.00;99.90;;;;;;5034315;28;20527;-74
2024/01/30 10:32:58;;;;;;;8.80;5.73;;;13.10;99.90;;;;;;5035656;28;20221;-72
2024/01/30 10:35:24;;;;;;;5.50;5.00;;;13.20;99.90;;;;;;5034426;28;20193;-69
2024/01/30 10:37:50;;;;;;;6.13;5.53;;;13.30;99.90;;;;;;5035073;28;20190;-71
2024/01/30 10:40:16;;;;;;;9.33;6.13;;;13.20;99.90;;;;;;5034489;28;20182;-68
2024/01/30 10:42:45;;;;;;;6.37;5.07;;;13.20;99.90;;;;;;5035257;28;20186;-68
2024/01/30 10:45:13;;;;;;;9.10;5.57;;;13.30;99.90;;;;;;5049206;28;20421;-70
2024/01/30 10:47:41;;;;;;;9.17;5.73;;;13.40;99.90;;;;;;5035340;28;20448;-68
2024/01/30 10:50:08;;;;;;;7.73;5.87;;;13.50;99.90;;;;;;5064214;28;21336;-69
2024/01/30 10:52:34;;;;;;;6.30;5.00;;;13.60;99.90;;;;;;5033426;28;20456;-69
2024/01/30 10:55:01;;;;;;;6.23;5.50;;;13.70;99.90;;;;;;5033832;28;20422;-68
2024/01/30 10:57:27;;;;;;;6.83;5.40;;;13.80;99.90;;;;;;5034704;28;20911;-70
2024/01/30 11:00:01;;;;;;;6.10;5.17;;;14.00;99.90;;;;;;5033828;28;20939;-71
2024/01/30 11:02:28;;;;;;;9.30;6.80;;;14.00;99.90;;;;;;5034732;28;20502;-72
2024/01/30 11:05:00;;;;;;;6.47;5.80;;;13.90;99.90;;;;;;5033663;28;20459;-68
2024/01/30 11:07:28;;;;;;;5.60;4.87;;;13.90;99.90;;;;;;5034697;28;20424;-67
2024/01/30 11:10:02;;;;;;;7.50;5.73;;;13.90;99.90;;;;;;5033375;28;20434;-65
2024/01/30 11:12:30;;;;;;;9.80;6.73;;;14.00;99.90;;;;;;5034949;28;20443;-68
2024/01/30 11:15:04;;;;;;;9.07;6.43;;;14.00;99.90;;;;;;5033261;28;20432;-71
2024/01/30 11:17:59;;;;;;;12.60;6.63;;;13.90;99.90;;;;;;5033873;28;20433;-70
2024/01/30 11:20:27;;;;;;;10.90;6.83;;;13.80;99.90;;;;;;5033717;28;20443;-69
2024/01/30 11:22:56;;;;;;;8.60;6.40;;;13.70;99.90;;;;;;5033372;28;20445;-71
2024/01/30 11:25:22;;;;;;;9.10;5.70;;;13.60;99.90;;;;;;5033279;28;20424;-72
2024/01/30 11:27:53;;;;;;;7.90;5.87;;;13.50;99.90;;;;;;5033993;28;20428;-66
2024/01/30 11:30:27;;;;;;;9.67;5.73;;;13.50;99.90;;;;;;5034816;28;21040;-70
2024/01/30 11:33:08;;;;;;;7.80;6.30;;;13.40;99.90;;;;;;5033333;28;20432;-70
2024/01/30 11:35:41;;;;;;;6.83;5.80;;;13.30;99.90;;;;;;5033783;28;20761;-72
2024/01/30 11:38:08;;;;;;;8.50;5.77;;;13.20;99.90;;;;;;5032581;28;20428;-68
2024/01/30 11:40:35;;;;;;;9.30;5.97;;;13.20;99.90;;;;;;5033858;28;20488;-67
2024/01/30 11:43:02;;;;;;;8.63;6.33;;;13.10;99.90;;;;;;5032381;28;20433;-68
2024/01/30 11:45:28;;;;;;;8.03;6.37;;;13.10;99.90;;;;;;5033692;28;20834;-70
2024/01/30 11:47:55;;;;;;;9.13;6.07;;;13.10;99.90;;;;;;5032965;28;20507;-72
2024/01/30 11:50:20;;;;;;;10.20;5.47;;;13.10;99.90;;;;;;5032726;28;20255;-73
2024/01/30 11:52:47;;;;;;;10.80;5.57;;;13.00;99.90;;;;;;5032901;28;20451;-67
2024/01/30 11:55:14;;;;;;;8.53;5.97;;;13.00;99.90;;;;;;5033243;28;20796;-68
2024/01/30 11:57:40;;;;;;;8.83;5.87;;;13.00;99.90;;;;;;5032644;28;20436;-70
2024/01/30 12:00:13;;;;;;;14.10;10.43;;;13.00;99.90;;;;;;5032816;28;20420;-68
2024/01/30 12:02:40;;;;;;;16.47;11.50;;;12.90;99.90;;;;;;5033730;28;20540;-65
2024/01/30 12:05:06;;;;;;;14.07;8.93;;;12.80;99.90;;;;;;5031433;28;21223;-68
2024/01/30 12:07:32;;;;;;;11.20;7.23;;;12.70;99.90;;;;;;5034079;28;20476;-71
2024/01/30 12:09:58;;;;;;;9.40;7.00;;;12.70;99.90;;;;;;5033609;28;20435;-70
2024/01/30 12:12:28;;;;;;;12.10;8.00;;;12.70;99.90;;;;;;5033448;28;20473;-70
2024/01/30 12:14:54;;;;;;;11.20;6.43;;;12.70;99.90;;;;;;5032004;28;20194;-69
2024/01/30 12:17:31;;;;;;;10.30;6.10;;;12.70;99.90;;;;;;5031184;28;20535;-75
2024/01/30 12:20:27;;;;;;;9.53;6.97;;;12.60;99.90;;;;;;5032931;28;20428;-69
2024/01/30 12:22:54;;;;;;;8.20;6.27;;;12.60;99.90;;;;;;5031993;28;20429;-71
2024/01/30 12:25:21;;;;;;;12.23;7.87;;;12.60;99.90;;;;;;5032390;28;20421;-70
2024/01/30 12:27:51;;;;;;;8.13;7.03;;;12.60;99.90;;;;;;5032591;28;20498;-70
2024/01/30 12:30:17;;;;;;;9.67;7.40;;;12.60;99.90;;;;;;5031977;28;20503;-74
2024/01/30 12:32:46;;;;;;;17.33;6.67;;;12.50;99.90;;;;;;5032452;28;20433;-69
2024/01/30 12:35:16;;;;;;;10.10;7.10;;;12.50;99.90;;;;;;5031680;28;20464;-73
2024/01/30 12:37:44;;;;;;;11.93;7.83;;;12.50;99.90;;;;;;5032426;28;20425;-70
2024/01/30 12:40:11;;;;;;;11.43;8.53;;;12.50;99.90;;;;;;5032145;28;20428;-65
2024/01/30 12:42:36;;;;;;;15.13;8.80;;;12.40;99.90;;;;;;5032592;28;20470;-67
2024/01/30 12:45:04;;;;;;;12.00;8.37;;;12.40;99.90;;;;;;5032793;28;20449;-64
2024/01/30 12:47:30;;;;;;;10.63;7.40;;;12.40;99.90;;;;;;5033830;28;20595;-70